createdAt,value
2016-03-16T00:00:55.231Z,1020.56
2016-03-16T00:01:55.203Z,1020.62
2016-03-16T00:02:55.159Z,1020.58
2016-03-16T00:03:55.130Z,1020.61
2016-03-16T00:04:55.086Z,1020.59
2016-03-16T00:05:55.057Z,1020.61
2016-03-16T00:06:55.028Z,1020.63
2016-03-16T00:07:54.983Z,1020.62
2016-03-16T00:08:54.955Z,1020.64
2016-03-16T00:09:54.927Z,1020.62
2016-03-16T00:10:54.899Z,1020.64
2016-03-16T00:11:54.855Z,1020.65
2016-03-16T00:12:54.826Z,1020.66
2016-03-16T00:13:54.782Z,1020.66
2016-03-16T00:14:54.753Z,1020.68
2016-03-16T00:15:54.725Z,1020.71
2016-03-16T00:16:54.696Z,1020.7
2016-03-16T00:17:54.652Z,1020.73
2016-03-16T00:18:54.623Z,1020.72
2016-03-16T00:19:54.586Z,1020.74
2016-03-16T00:20:54.530Z,1020.77
2016-03-16T00:21:54.488Z,1020.76
2016-03-16T00:22:54.448Z,1020.78
2016-03-16T00:23:54.408Z,1020.75
2016-03-16T00:24:54.358Z,1020.77
2016-03-16T00:25:54.309Z,1020.72
2016-03-16T00:26:54.277Z,1020.75
2016-03-16T00:27:54.228Z,1020.74
2016-03-16T00:28:54.196Z,1020.76
2016-03-16T00:29:54.165Z,1020.74
2016-03-16T00:30:54.123Z,1020.81
2016-03-16T00:31:54.092Z,1020.74
2016-03-16T00:32:54.047Z,1020.78
2016-03-16T00:33:54.032Z,1020.8
2016-03-16T00:34:53.988Z,1020.83
2016-03-16T00:35:53.959Z,1020.85
2016-03-16T00:36:53.915Z,1020.84
2016-03-16T00:37:53.886Z,1020.84
2016-03-16T00:38:53.841Z,1020.82
2016-03-16T00:39:53.811Z,1020.82
2016-03-16T00:40:53.783Z,1020.84
2016-03-16T00:41:53.738Z,1020.83
2016-03-16T00:42:53.725Z,1020.83
2016-03-16T00:43:53.681Z,1020.86
2016-03-16T00:44:53.636Z,1020.84
2016-03-16T00:45:53.608Z,1020.83
2016-03-16T00:46:53.563Z,1020.87
2016-03-16T00:47:53.535Z,1020.88
2016-03-16T00:48:53.506Z,1020.83
2016-03-16T00:49:53.478Z,1020.85
2016-03-16T00:50:53.433Z,1020.9
2016-03-16T00:51:53.405Z,1020.84
2016-03-16T00:52:53.377Z,1020.83
2016-03-16T00:53:53.332Z,1020.88
2016-03-16T00:54:53.288Z,1020.82
2016-03-16T00:55:53.260Z,1020.88
2016-03-16T00:56:53.230Z,1020.88
2016-03-16T00:57:53.187Z,1020.84
2016-03-16T00:58:53.159Z,1020.84
2016-03-16T00:59:53.130Z,1020.82
2016-03-16T01:00:53.086Z,1020.84
2016-03-16T01:01:53.057Z,1020.81
2016-03-16T01:02:53.029Z,1020.78
2016-03-16T01:03:53.000Z,1020.76
2016-03-16T01:04:52.957Z,1020.71
2016-03-16T01:05:52.927Z,1020.77
2016-03-16T01:06:52.883Z,1020.74
2016-03-16T01:07:52.858Z,1020.77
2016-03-16T01:08:52.814Z,1020.73
2016-03-16T01:09:52.785Z,1020.76
2016-03-16T01:10:52.740Z,1020.76
2016-03-16T01:11:52.712Z,1020.74
2016-03-16T01:12:52.668Z,1020.73
2016-03-16T01:13:52.644Z,1020.73
2016-03-16T01:14:52.615Z,1020.73
2016-03-16T01:15:52.571Z,1020.77
2016-03-16T01:16:52.542Z,1020.78
2016-03-16T01:17:52.499Z,1020.74
2016-03-16T01:18:52.470Z,1020.72
2016-03-16T01:19:52.442Z,1020.75
2016-03-16T01:20:52.397Z,1020.76
2016-03-16T01:21:52.370Z,1020.74
2016-03-16T01:22:52.340Z,1020.73
2016-03-16T01:23:52.328Z,1020.78
2016-03-16T01:24:52.268Z,1020.74
2016-03-16T01:25:52.239Z,1020.73
2016-03-16T01:26:52.195Z,1020.75
2016-03-16T01:27:52.167Z,1020.68
2016-03-16T01:28:52.122Z,1020.73
2016-03-16T01:29:52.094Z,1020.75
2016-03-16T01:30:52.065Z,1020.77
2016-03-16T01:31:52.021Z,1020.75
2016-03-16T01:32:51.992Z,1020.75
2016-03-16T01:33:51.949Z,1020.74
2016-03-16T01:34:51.919Z,1020.72
2016-03-16T01:35:51.891Z,1020.68
2016-03-16T01:36:51.847Z,1020.73
2016-03-16T01:37:51.819Z,1020.78
2016-03-16T01:38:51.774Z,1020.77
2016-03-16T01:39:51.746Z,1020.73
2016-03-16T01:40:51.718Z,1020.73
2016-03-16T01:41:51.673Z,1020.72
2016-03-16T01:42:51.644Z,1020.75
2016-03-16T01:43:51.600Z,1020.75
2016-03-16T01:44:51.571Z,1020.74
2016-03-16T01:45:51.543Z,1020.75
2016-03-16T01:46:51.498Z,1020.76
2016-03-16T01:47:51.470Z,1020.77
2016-03-16T01:48:51.442Z,1020.78
2016-03-16T01:49:51.413Z,1020.79
2016-03-16T01:50:51.369Z,1020.72
2016-03-16T01:51:51.340Z,1020.7
2016-03-16T01:52:51.296Z,1020.74
2016-03-16T01:53:51.268Z,1020.77
2016-03-16T01:54:51.239Z,1020.76
2016-03-16T01:55:51.195Z,1020.79
2016-03-16T01:56:51.167Z,1020.78
2016-03-16T01:57:51.139Z,1020.76
2016-03-16T01:58:51.094Z,1020.78
2016-03-16T01:59:51.065Z,1020.76
2016-03-16T02:00:51.022Z,1020.8
2016-03-16T02:01:50.992Z,1020.84
2016-03-16T02:02:50.964Z,1020.82
2016-03-16T02:03:50.936Z,1020.89
2016-03-16T02:04:50.891Z,1020.84
2016-03-16T02:05:50.863Z,1020.88
2016-03-16T02:06:50.818Z,1020.88
2016-03-16T02:07:50.789Z,1020.89
2016-03-16T02:08:50.760Z,1020.87
2016-03-16T02:09:50.732Z,1020.9
2016-03-16T02:10:50.687Z,1020.93
2016-03-16T02:11:50.659Z,1020.91
2016-03-16T02:12:50.615Z,1020.89
2016-03-16T02:13:50.587Z,1020.88
2016-03-16T02:14:50.558Z,1020.92
2016-03-16T02:15:50.528Z,1020.92
2016-03-16T02:16:50.486Z,1020.89
2016-03-16T02:17:50.456Z,1020.88
2016-03-16T02:18:50.428Z,1020.87
2016-03-16T02:19:50.383Z,1020.94
2016-03-16T02:20:50.357Z,1020.92
2016-03-16T02:21:50.312Z,1020.89
2016-03-16T02:22:50.284Z,1020.91
2016-03-16T02:23:50.254Z,1020.91
2016-03-16T02:24:50.226Z,1020.96
2016-03-16T02:25:50.182Z,1020.93
2016-03-16T02:26:50.153Z,1020.98
2016-03-16T02:27:50.125Z,1020.94
2016-03-16T02:28:50.080Z,1020.9
2016-03-16T02:29:50.053Z,1020.92
2016-03-16T02:30:50.023Z,1020.92
2016-03-16T02:31:49.980Z,1020.93
2016-03-16T02:32:49.951Z,1020.94
2016-03-16T02:33:49.906Z,1020.93
2016-03-16T02:34:49.878Z,1020.91
2016-03-16T02:35:49.850Z,1020.92
2016-03-16T02:36:49.806Z,1020.89
2016-03-16T02:37:49.777Z,1020.93
2016-03-16T02:38:49.749Z,1020.87
2016-03-16T02:39:49.719Z,1020.92
2016-03-16T02:40:49.675Z,1020.89
2016-03-16T02:41:49.647Z,1020.91
2016-03-16T02:42:49.603Z,1020.91
2016-03-16T02:43:49.574Z,1020.9
2016-03-16T02:44:49.546Z,1020.93
2016-03-16T02:45:49.501Z,1020.96
2016-03-16T02:46:49.473Z,1020.92
2016-03-16T02:47:49.443Z,1020.9
2016-03-16T02:48:49.401Z,1020.9
2016-03-16T02:49:49.371Z,1020.91
2016-03-16T02:50:49.343Z,1020.9
2016-03-16T02:51:49.298Z,1020.91
2016-03-16T02:52:49.270Z,1020.95
2016-03-16T02:53:49.242Z,1020.92
2016-03-16T02:54:49.198Z,1020.9
2016-03-16T02:55:49.170Z,1020.9
2016-03-16T02:56:49.140Z,1020.93
2016-03-16T02:57:49.112Z,1020.91
2016-03-16T02:58:49.067Z,1020.93
2016-03-16T02:59:49.039Z,1020.88
2016-03-16T03:00:48.995Z,1020.95
2016-03-16T03:01:48.967Z,1020.9
2016-03-16T03:02:48.938Z,1020.9
2016-03-16T03:03:48.893Z,1020.88
2016-03-16T03:04:48.864Z,1020.94
2016-03-16T03:05:48.836Z,1020.9
2016-03-16T03:06:48.792Z,1020.89
2016-03-16T03:07:48.763Z,1020.92
2016-03-16T03:08:48.735Z,1020.95
2016-03-16T03:09:48.691Z,1020.94
2016-03-16T03:10:48.663Z,1021
2016-03-16T03:11:48.633Z,1021
2016-03-16T03:12:48.590Z,1021.03
2016-03-16T03:13:48.561Z,1021.04
2016-03-16T03:14:48.533Z,1021.07
2016-03-16T03:15:48.488Z,1021.09
2016-03-16T03:16:48.459Z,1021.11
2016-03-16T03:17:48.432Z,1021.12
2016-03-16T03:18:48.387Z,1021.13
2016-03-16T03:19:48.359Z,1021.13
2016-03-16T03:20:48.330Z,1021.11
2016-03-16T03:21:48.285Z,1021.09
2016-03-16T03:22:48.257Z,1021.14
2016-03-16T03:23:48.229Z,1021.1
2016-03-16T03:24:48.184Z,1021.12
2016-03-16T03:25:48.156Z,1021.15
2016-03-16T03:26:48.128Z,1021.11
2016-03-16T03:27:48.083Z,1021.13
2016-03-16T03:28:48.054Z,1021.11
2016-03-16T03:29:48.026Z,1021.13
2016-03-16T03:30:47.982Z,1021.12
2016-03-16T03:31:47.953Z,1021.09
2016-03-16T03:32:47.925Z,1021.09
2016-03-16T03:33:47.897Z,1021.07
2016-03-16T03:34:47.853Z,1021.04
2016-03-16T03:35:47.823Z,1021.04
2016-03-16T03:36:47.779Z,1021.06
2016-03-16T03:37:47.751Z,1021.09
2016-03-16T03:38:47.722Z,1021.1
2016-03-16T03:39:47.677Z,1021.11
2016-03-16T03:40:47.649Z,1021.14
2016-03-16T03:41:47.621Z,1021.12
2016-03-16T03:42:47.577Z,1021.19
2016-03-16T03:43:47.548Z,1021.14
2016-03-16T03:44:47.519Z,1021.15
2016-03-16T03:45:47.475Z,1021.14
2016-03-16T03:46:47.447Z,1021.17
2016-03-16T03:47:47.434Z,1021.16
2016-03-16T03:48:47.390Z,1021.15
2016-03-16T03:49:47.346Z,1021.2
2016-03-16T03:50:47.317Z,1021.18
2016-03-16T03:51:47.273Z,1021.11
2016-03-16T03:52:47.243Z,1021.16
2016-03-16T03:53:47.215Z,1021.18
2016-03-16T03:54:47.186Z,1021.16
2016-03-16T03:55:47.142Z,1021.22
2016-03-16T03:56:47.114Z,1021.25
2016-03-16T03:57:47.086Z,1021.24
2016-03-16T03:58:47.042Z,1021.26
2016-03-16T03:59:47.012Z,1021.26
2016-03-16T04:00:46.969Z,1021.28
2016-03-16T04:01:46.940Z,1021.23
2016-03-16T04:03:46.883Z,1021.29
2016-03-16T04:04:46.838Z,1021.34
2016-03-16T04:05:46.810Z,1021.25
2016-03-16T04:06:46.781Z,1021.31
2016-03-16T04:07:46.737Z,1021.3
2016-03-16T04:08:46.708Z,1021.31
2016-03-16T04:09:46.680Z,1021.33
2016-03-16T04:10:46.636Z,1021.34
2016-03-16T04:11:46.608Z,1021.4
2016-03-16T04:12:46.579Z,1021.4
2016-03-16T04:13:46.535Z,1021.42
2016-03-16T04:14:46.506Z,1021.44
2016-03-16T04:15:46.477Z,1021.44
2016-03-16T04:16:46.433Z,1021.4
2016-03-16T04:17:46.404Z,1021.45
2016-03-16T04:18:46.376Z,1021.45
2016-03-16T04:19:46.348Z,1021.42
2016-03-16T04:20:46.304Z,1021.39
2016-03-16T04:21:46.275Z,1021.38
2016-03-16T04:22:46.232Z,1021.4
2016-03-16T04:23:46.202Z,1021.43
2016-03-16T04:24:46.173Z,1021.42
2016-03-16T04:25:46.145Z,1021.45
2016-03-16T04:26:46.101Z,1021.5
2016-03-16T04:27:46.073Z,1021.46
2016-03-16T04:28:46.044Z,1021.48
2016-03-16T04:29:46.000Z,1021.49
2016-03-16T04:30:45.971Z,1021.56
2016-03-16T04:31:45.943Z,1021.55
2016-03-16T04:32:45.914Z,1021.5
2016-03-16T04:33:45.870Z,1021.56
2016-03-16T04:34:45.842Z,1021.57
2016-03-16T04:35:45.813Z,1021.57
2016-03-16T04:36:45.769Z,1021.56
2016-03-16T04:37:45.739Z,1021.55
2016-03-16T04:38:45.712Z,1021.57
2016-03-16T04:39:45.667Z,1021.55
2016-03-16T04:40:45.639Z,1021.57
2016-03-16T04:41:45.610Z,1021.57
2016-03-16T04:42:45.582Z,1021.56
2016-03-16T04:43:45.538Z,1021.55
2016-03-16T04:44:45.509Z,1021.52
2016-03-16T04:45:45.465Z,1021.52
2016-03-16T04:46:45.436Z,1021.52
2016-03-16T04:47:45.438Z,1021.54
2016-03-16T04:48:45.363Z,1021.52
2016-03-16T04:49:45.335Z,1021.57
2016-03-16T04:50:45.307Z,1021.6
2016-03-16T04:51:45.262Z,1021.6
2016-03-16T04:52:45.234Z,1021.62
2016-03-16T04:53:45.204Z,1021.67
2016-03-16T04:54:45.176Z,1021.65
2016-03-16T04:55:45.148Z,1021.62
2016-03-16T04:56:45.104Z,1021.6
2016-03-16T04:57:45.075Z,1021.65
2016-03-16T04:58:45.046Z,1021.6
2016-03-16T04:59:45.003Z,1021.62
2016-03-16T05:00:44.973Z,1021.62
2016-03-16T05:01:44.929Z,1021.65
2016-03-16T05:02:44.901Z,1021.6
2016-03-16T05:03:44.873Z,1021.57
2016-03-16T05:04:44.844Z,1021.56
2016-03-16T05:05:44.800Z,1021.59
2016-03-16T05:06:44.808Z,1021.57
2016-03-16T05:07:44.733Z,1021.58
2016-03-16T05:08:44.704Z,1021.6
2016-03-16T05:09:44.660Z,1021.63
2016-03-16T05:10:44.631Z,1021.65
2016-03-16T05:11:44.603Z,1021.61
2016-03-16T05:12:44.574Z,1021.6
2016-03-16T05:13:44.530Z,1021.65
2016-03-16T05:14:44.502Z,1021.67
2016-03-16T05:15:44.473Z,1021.72
2016-03-16T05:16:44.429Z,1021.7
2016-03-16T05:17:44.400Z,1021.72
2016-03-16T05:18:44.372Z,1021.72
2016-03-16T05:19:44.327Z,1021.72
2016-03-16T05:20:44.299Z,1021.71
2016-03-16T05:21:44.271Z,1021.72
2016-03-16T05:22:44.241Z,1021.77
2016-03-16T05:23:44.197Z,1021.82
2016-03-16T05:24:44.169Z,1021.74
2016-03-16T05:25:44.125Z,1021.73
2016-03-16T05:26:44.097Z,1021.82
2016-03-16T05:27:44.068Z,1021.77
2016-03-16T05:28:44.040Z,1021.74
2016-03-16T05:29:43.995Z,1021.79
2016-03-16T05:30:43.966Z,1021.8
2016-03-16T05:31:43.938Z,1021.78
2016-03-16T05:32:43.909Z,1021.83
2016-03-16T05:33:43.865Z,1021.77
2016-03-16T05:34:43.837Z,1021.81
2016-03-16T05:35:43.792Z,1021.74
2016-03-16T05:36:43.764Z,1021.79
2016-03-16T05:37:43.735Z,1021.78
2016-03-16T05:38:43.707Z,1021.77
2016-03-16T05:39:43.679Z,1021.83
2016-03-16T05:40:43.634Z,1021.8
2016-03-16T05:41:43.590Z,1021.76
2016-03-16T05:42:43.561Z,1021.83
2016-03-16T05:43:43.533Z,1021.82
2016-03-16T05:44:43.504Z,1021.84
2016-03-16T05:45:43.460Z,1021.9
2016-03-16T05:46:43.431Z,1021.92
2016-03-16T05:47:43.402Z,1021.92
2016-03-16T05:48:43.374Z,1021.92
2016-03-16T05:49:43.330Z,1021.91
2016-03-16T05:50:43.302Z,1021.99
2016-03-16T05:51:43.273Z,1021.98
2016-03-16T05:52:43.229Z,1022.03
2016-03-16T05:53:43.200Z,1022
2016-03-16T05:54:43.155Z,1022.05
2016-03-16T05:55:43.127Z,1021.98
2016-03-16T05:56:43.099Z,1022.03
2016-03-16T05:57:43.071Z,1022.03
2016-03-16T05:58:43.027Z,1022.12
2016-03-16T05:59:42.999Z,1022.08
2016-03-16T06:00:42.969Z,1022.11
2016-03-16T06:01:42.925Z,1022.11
2016-03-16T06:02:42.897Z,1022.09
2016-03-16T06:03:42.868Z,1022.1
2016-03-16T06:04:42.840Z,1022.08
2016-03-16T06:05:42.795Z,1022.18
2016-03-16T06:06:42.767Z,1022.14
2016-03-16T06:07:42.722Z,1022.09
2016-03-16T06:08:42.693Z,1022.16
2016-03-16T06:09:42.665Z,1022.19
2016-03-16T06:10:42.620Z,1022.26
2016-03-16T06:11:42.593Z,1022.23
2016-03-16T06:12:42.564Z,1022.24
2016-03-16T06:13:42.536Z,1022.14
2016-03-16T06:14:42.492Z,1022.22
2016-03-16T06:15:42.478Z,1022.18
2016-03-16T06:16:42.434Z,1022.22
2016-03-16T06:17:42.405Z,1022.2
2016-03-16T06:18:42.361Z,1022.2
2016-03-16T06:19:42.333Z,1022.22
2016-03-16T06:20:42.304Z,1022.2
2016-03-16T06:21:42.260Z,1022.28
2016-03-16T06:22:42.231Z,1022.24
2016-03-16T06:23:42.202Z,1022.28
2016-03-16T06:24:42.159Z,1022.24
2016-03-16T06:25:42.146Z,1022.29
2016-03-16T06:26:42.102Z,1022.25
2016-03-16T06:27:42.058Z,1022.26
2016-03-16T06:28:42.030Z,1022.25
2016-03-16T06:29:41.999Z,1022.28
2016-03-16T06:30:41.971Z,1022.27
2016-03-16T06:31:41.927Z,1022.29
2016-03-16T06:32:41.899Z,1022.34
2016-03-16T06:33:41.855Z,1022.27
2016-03-16T06:34:41.826Z,1022.27
2016-03-16T06:35:41.798Z,1022.3
2016-03-16T06:36:41.768Z,1022.35
2016-03-16T06:37:41.726Z,1022.33
2016-03-16T06:38:41.696Z,1022.4
2016-03-16T06:39:41.667Z,1022.36
2016-03-16T06:40:41.623Z,1022.37
2016-03-16T06:41:41.595Z,1022.32
2016-03-16T06:42:41.566Z,1022.34
2016-03-16T06:43:41.538Z,1022.38
2016-03-16T06:44:41.494Z,1022.36
2016-03-16T06:45:41.465Z,1022.39
2016-03-16T06:46:41.437Z,1022.37
2016-03-16T06:47:41.408Z,1022.31
2016-03-16T06:48:41.364Z,1022.36
2016-03-16T06:49:41.335Z,1022.37
2016-03-16T06:50:41.291Z,1022.37
2016-03-16T06:51:41.263Z,1022.37
2016-03-16T06:52:41.234Z,1022.33
2016-03-16T06:53:41.206Z,1022.41
2016-03-16T06:54:41.161Z,1022.33
2016-03-16T06:55:41.133Z,1022.41
2016-03-16T06:56:41.104Z,1022.46
2016-03-16T06:57:41.075Z,1022.45
2016-03-16T06:58:41.046Z,1022.45
2016-03-16T06:59:41.002Z,1022.39
2016-03-16T07:00:40.974Z,1022.46
2016-03-16T07:01:40.946Z,1022.44
2016-03-16T07:02:40.918Z,1022.44
2016-03-16T07:03:40.874Z,1022.46
2016-03-16T07:04:40.844Z,1022.48
2016-03-16T07:05:40.816Z,1022.43
2016-03-16T07:06:40.772Z,1022.44
2016-03-16T07:07:40.743Z,1022.46
2016-03-16T07:08:40.730Z,1022.54
2016-03-16T07:09:40.686Z,1022.5
2016-03-16T07:10:40.642Z,1022.48
2016-03-16T07:11:40.628Z,1022.48
2016-03-16T07:12:40.584Z,1022.48
2016-03-16T07:13:40.556Z,1022.5
2016-03-16T07:14:40.511Z,1022.49
2016-03-16T07:15:40.483Z,1022.47
2016-03-16T07:16:40.455Z,1022.54
2016-03-16T07:17:40.426Z,1022.48
2016-03-16T07:18:40.398Z,1022.52
2016-03-16T07:19:40.353Z,1022.46
2016-03-16T07:20:40.325Z,1022.47
2016-03-16T07:21:40.280Z,1022.43
2016-03-16T07:22:40.252Z,1022.51
2016-03-16T07:23:40.224Z,1022.47
2016-03-16T07:24:40.195Z,1022.49
2016-03-16T07:25:41.433Z,1022.45
2016-03-16T07:26:41.358Z,1022.4
2016-03-16T07:27:41.531Z,1022.42
2016-03-16T07:28:40.066Z,1022.49
2016-03-16T07:29:40.036Z,1022.4
2016-03-16T07:30:39.993Z,1022.42
2016-03-16T07:31:39.963Z,1022.39
2016-03-16T07:32:39.932Z,1022.51
2016-03-16T07:33:39.888Z,1022.44
2016-03-16T07:34:39.860Z,1022.45
2016-03-16T07:35:39.831Z,1022.43
2016-03-16T07:36:40.321Z,1022.4
2016-03-16T07:37:41.418Z,1022.5
2016-03-16T07:38:41.093Z,1022.42
2016-03-16T07:39:39.702Z,1022.45
2016-03-16T07:40:39.673Z,1022.47
2016-03-16T07:41:39.645Z,1022.5
2016-03-16T07:42:39.600Z,1022.5
2016-03-16T07:43:39.571Z,1022.51
2016-03-16T07:44:39.542Z,1022.5
2016-03-16T07:45:39.514Z,1022.45
2016-03-16T07:46:39.470Z,1022.46
2016-03-16T07:47:39.441Z,1022.46
2016-03-16T07:48:39.413Z,1022.43
2016-03-16T07:49:39.384Z,1022.5
2016-03-16T07:50:39.340Z,1022.48
2016-03-16T07:51:39.312Z,1022.48
2016-03-16T07:52:39.283Z,1022.48
2016-03-16T07:53:39.239Z,1022.51
2016-03-16T07:54:39.210Z,1022.55
2016-03-16T07:55:39.182Z,1022.55
2016-03-16T07:56:39.153Z,1022.5
2016-03-16T07:57:39.125Z,1022.63
2016-03-16T07:58:39.097Z,1022.59
2016-03-16T07:59:39.053Z,1022.6
2016-03-16T08:00:39.024Z,1022.68
2016-03-16T08:01:38.995Z,1022.57
2016-03-16T08:02:38.951Z,1022.6
2016-03-16T08:03:38.922Z,1022.68
2016-03-16T08:04:38.893Z,1022.63
2016-03-16T08:05:38.865Z,1022.67
2016-03-16T08:06:38.833Z,1022.72
2016-03-16T08:07:38.789Z,1022.8
2016-03-16T08:08:38.761Z,1022.76
2016-03-16T08:09:38.731Z,1022.78
2016-03-16T08:10:38.703Z,1022.72
2016-03-16T08:11:38.658Z,1022.75
2016-03-16T08:12:38.630Z,1022.81
2016-03-16T08:13:38.602Z,1022.85
2016-03-16T08:14:38.572Z,1022.83
2016-03-16T08:15:38.544Z,1022.72
2016-03-16T08:16:38.500Z,1022.8
2016-03-16T08:17:38.472Z,1022.74
2016-03-16T08:18:38.443Z,1022.78
2016-03-16T08:19:38.415Z,1022.85
2016-03-16T08:20:38.371Z,1022.85
2016-03-16T08:21:38.342Z,1022.87
2016-03-16T08:22:38.344Z,1022.91
2016-03-16T08:23:38.284Z,1022.87
2016-03-16T08:24:38.256Z,1022.9
2016-03-16T08:25:38.227Z,1022.97
2016-03-16T08:26:38.184Z,1022.89
2016-03-16T08:27:38.155Z,1022.89
2016-03-16T08:28:38.126Z,1022.93
2016-03-16T08:29:38.098Z,1022.95
2016-03-16T08:30:38.070Z,1022.88
2016-03-16T08:31:38.025Z,1022.97
2016-03-16T08:32:37.996Z,1022.97
2016-03-16T08:33:37.968Z,1022.9
2016-03-16T08:34:37.939Z,1023.01
2016-03-16T08:35:37.911Z,1023.08
2016-03-16T08:36:37.867Z,1023.04
2016-03-16T08:37:37.853Z,1023.02
2016-03-16T08:38:37.809Z,1023.04
2016-03-16T08:39:37.781Z,1023
2016-03-16T08:40:37.752Z,1023.05
2016-03-16T08:41:37.724Z,1023.07
2016-03-16T08:42:37.679Z,1022.97
2016-03-16T08:43:37.650Z,1022.98
2016-03-16T08:44:37.622Z,1023
2016-03-16T08:45:37.610Z,1022.99
2016-03-16T08:46:37.565Z,1023.01
2016-03-16T08:47:37.537Z,1022.96
2016-03-16T08:48:37.508Z,1023.14
2016-03-16T08:49:37.480Z,1023.06
2016-03-16T08:50:37.451Z,1023.03
2016-03-16T08:51:37.422Z,1023.03
2016-03-16T08:52:37.379Z,1023.02
2016-03-16T08:53:37.349Z,1023.1
2016-03-16T08:54:37.321Z,1023.11
2016-03-16T08:55:37.293Z,1023.09
2016-03-16T08:56:37.265Z,1023.11
2016-03-16T08:57:37.235Z,1023.03
2016-03-16T08:58:37.207Z,1023.03
2016-03-16T08:59:37.163Z,1023.05
2016-03-16T09:00:37.150Z,1023.12
2016-03-16T09:01:37.106Z,1023.12
2016-03-16T09:02:37.077Z,1023.1
2016-03-16T09:03:37.048Z,1023.09
2016-03-16T09:04:37.020Z,1023.05
2016-03-16T09:05:36.991Z,1023.1
2016-03-16T09:06:36.968Z,1023.13
2016-03-16T09:07:36.939Z,1023.09
2016-03-16T09:08:36.895Z,1023.32
2016-03-16T09:09:36.883Z,1023.15
2016-03-16T09:10:36.838Z,1023.2
2016-03-16T09:11:36.809Z,1023.14
2016-03-16T09:12:36.780Z,1023.16
2016-03-16T09:13:36.752Z,1023.11
2016-03-16T09:14:36.724Z,1023.13
2016-03-16T09:15:36.694Z,1023.09
2016-03-16T09:16:36.666Z,1023.09
2016-03-16T09:17:36.638Z,1023.19
2016-03-16T09:18:36.609Z,1023.16
2016-03-16T09:19:36.565Z,1023.22
2016-03-16T09:20:36.551Z,1023.22
2016-03-16T09:21:36.510Z,1023.43
2016-03-16T09:22:36.482Z,1023.16
2016-03-16T09:23:36.454Z,1023.2
2016-03-16T09:24:36.426Z,1023.23
2016-03-16T09:25:36.398Z,1023.22
2016-03-16T09:26:36.361Z,1023.15
2016-03-16T09:27:36.310Z,1023.26
2016-03-16T09:28:36.268Z,1023.4
2016-03-16T09:29:36.277Z,1023.19
2016-03-16T09:30:37.810Z,1023.23
2016-03-16T09:31:36.136Z,1023.3
2016-03-16T09:32:36.103Z,1023.2
2016-03-16T09:33:36.070Z,1023.15
2016-03-16T09:34:36.036Z,1023.13
2016-03-16T09:35:35.989Z,1023.15
2016-03-16T09:36:35.974Z,1023.16
2016-03-16T09:37:35.927Z,1023.22
2016-03-16T09:38:35.912Z,1023.14
2016-03-16T09:39:35.866Z,1023.21
2016-03-16T09:40:35.835Z,1023.21
2016-03-16T09:41:35.807Z,1023.25
2016-03-16T09:42:35.778Z,1023.17
2016-03-16T09:43:35.749Z,1023.22
2016-03-16T09:44:35.718Z,1023.1
2016-03-16T09:45:35.690Z,1023.14
2016-03-16T09:46:35.646Z,1023.2
2016-03-16T09:47:35.633Z,1023.13
2016-03-16T09:48:35.589Z,1023.08
2016-03-16T09:49:35.560Z,1023.09
2016-03-16T09:50:35.531Z,1023.14
2016-03-16T09:51:35.503Z,1023.11
2016-03-16T09:52:35.474Z,1023.14
2016-03-16T09:53:35.461Z,1023.24
2016-03-16T09:54:35.417Z,1023.12
2016-03-16T09:55:35.388Z,1023.12
2016-03-16T09:56:35.361Z,1023.25
2016-03-16T09:57:35.315Z,1023.11
2016-03-16T09:58:35.303Z,1023.17
2016-03-16T09:59:35.258Z,1023.02
2016-03-16T10:00:35.246Z,1023.17
2016-03-16T10:01:35.201Z,1023.23
2016-03-16T10:02:35.189Z,1023.05
2016-03-16T10:03:35.144Z,1023.36
2016-03-16T10:04:35.131Z,1023.12
2016-03-16T10:05:35.087Z,1023.12
2016-03-16T10:06:35.059Z,1023.14
2016-03-16T10:07:35.029Z,1023.21
2016-03-16T10:08:35.002Z,1023.19
2016-03-16T10:09:34.973Z,1023.33
2016-03-16T10:10:34.944Z,1023.16
2016-03-16T10:11:34.916Z,1023.32
2016-03-16T10:12:34.887Z,1023.16
2016-03-16T10:13:34.859Z,1023.54
2016-03-16T10:14:34.830Z,1023.15
2016-03-16T10:15:34.787Z,1023.23
2016-03-16T10:16:34.773Z,1023.21
2016-03-16T10:17:34.729Z,1023.27
2016-03-16T10:18:34.701Z,1023.31
2016-03-16T10:19:34.672Z,1023.36
2016-03-16T10:20:34.643Z,1023.24
2016-03-16T10:21:34.614Z,1023.26
2016-03-16T10:22:34.587Z,1023.22
2016-03-16T10:23:34.558Z,1023.3
2016-03-16T10:24:34.529Z,1023.21
2016-03-16T10:25:34.500Z,1023.19
2016-03-16T10:26:34.472Z,1023.18
2016-03-16T10:27:34.444Z,1023.27
2016-03-16T10:28:34.414Z,1023.14
2016-03-16T10:29:34.371Z,1023.3
2016-03-16T10:30:34.342Z,1023.31
2016-03-16T10:31:34.329Z,1023.37
2016-03-16T10:32:34.285Z,1023.51
2016-03-16T10:33:34.288Z,1023.4
2016-03-16T10:34:34.227Z,1023.3
2016-03-16T10:35:34.199Z,1023.29
2016-03-16T10:36:34.171Z,1023.24
2016-03-16T10:37:34.143Z,1023.26
2016-03-16T10:38:34.113Z,1023.29
2016-03-16T10:39:34.085Z,1023.29
2016-03-16T10:40:34.056Z,1023.25
2016-03-16T10:41:34.028Z,1023.26
2016-03-16T10:42:34.015Z,1023.35
2016-03-16T10:43:33.970Z,1023.56
2016-03-16T10:44:33.942Z,1023.38
2016-03-16T10:45:33.914Z,1023.49
2016-03-16T10:46:33.884Z,1023.42
2016-03-16T10:47:33.856Z,1023.41
2016-03-16T10:48:33.828Z,1023.33
2016-03-16T10:49:33.784Z,1023.5
2016-03-16T10:50:33.770Z,1023.36
2016-03-16T10:51:33.727Z,1023.49
2016-03-16T10:52:33.714Z,1023.46
2016-03-16T10:53:33.670Z,1023.44
2016-03-16T10:54:33.641Z,1023.37
2016-03-16T10:55:33.612Z,1023.29
2016-03-16T10:56:33.584Z,1023.39
2016-03-16T10:57:33.556Z,1023.29
2016-03-16T10:58:33.527Z,1023.33
2016-03-16T10:59:33.498Z,1023.31
2016-03-16T11:00:33.469Z,1023.28
2016-03-16T11:01:33.442Z,1023.37
2016-03-16T11:02:33.413Z,1023.34
2016-03-16T11:03:33.384Z,1023.31
2016-03-16T11:04:33.356Z,1023.4
2016-03-16T11:05:33.327Z,1023.34
2016-03-16T11:06:33.299Z,1023.47
2016-03-16T11:07:33.269Z,1023.32
2016-03-16T11:08:33.241Z,1023.49
2016-03-16T11:09:33.213Z,1023.4
2016-03-16T11:10:33.185Z,1023.35
2016-03-16T11:11:33.140Z,1023.34
2016-03-16T11:12:33.112Z,1023.3
2016-03-16T11:13:33.083Z,1023.36
2016-03-16T11:14:33.054Z,1023.31
2016-03-16T11:15:33.026Z,1023.48
2016-03-16T11:16:32.998Z,1023.37
2016-03-16T11:17:32.969Z,1023.29
2016-03-16T11:18:32.940Z,1023.36
2016-03-16T11:19:32.912Z,1023.42
2016-03-16T11:20:32.884Z,1023.39
2016-03-16T11:21:32.839Z,1023.36
2016-03-16T11:22:32.810Z,1023.3
2016-03-16T11:23:32.781Z,1023.14
2016-03-16T11:24:32.754Z,1023.21
2016-03-16T11:25:32.725Z,1023.17
2016-03-16T11:26:32.695Z,1023.08
2016-03-16T11:27:32.667Z,1023.23
2016-03-16T11:28:32.639Z,1023.33
2016-03-16T11:29:32.611Z,1023.33
2016-03-16T11:30:32.582Z,1023.33
2016-03-16T11:31:32.554Z,1023.21
2016-03-16T11:32:32.525Z,1023.25
2016-03-16T11:33:32.497Z,1023.25
2016-03-16T11:34:32.467Z,1023.26
2016-03-16T11:35:32.438Z,1023.22
2016-03-16T11:36:32.411Z,1023.4
2016-03-16T11:37:32.382Z,1023.31
2016-03-16T11:38:32.353Z,1023.21
2016-03-16T11:39:32.324Z,1023.33
2016-03-16T11:40:32.297Z,1023.22
2016-03-16T11:41:32.268Z,1023.21
2016-03-16T11:42:32.238Z,1023.23
2016-03-16T11:43:32.211Z,1023.11
2016-03-16T11:44:32.166Z,1023.18
2016-03-16T11:45:32.138Z,1023.15
2016-03-16T11:46:32.124Z,1023.21
2016-03-16T11:47:32.081Z,1023.17
2016-03-16T11:48:32.052Z,1023.29
2016-03-16T11:49:32.024Z,1023.23
2016-03-16T11:50:31.995Z,1023.15
2016-03-16T11:51:31.967Z,1023.22
2016-03-16T11:52:31.938Z,1023.31
2016-03-16T11:53:31.909Z,1023.31
2016-03-16T11:54:31.881Z,1023.19
2016-03-16T11:55:31.852Z,1023.2
2016-03-16T11:56:31.824Z,1023.3
2016-03-16T11:57:31.795Z,1023.18
2016-03-16T11:58:31.767Z,1023.27
2016-03-16T11:59:31.738Z,1023.11
2016-03-16T12:00:31.709Z,1023.37
2016-03-16T12:01:31.681Z,1023.31
2016-03-16T12:02:31.652Z,1023.27
2016-03-16T12:03:31.624Z,1023.19
2016-03-16T12:04:31.595Z,1023.17
2016-03-16T12:05:31.567Z,1023.14
2016-03-16T12:06:31.538Z,1023.11
2016-03-16T12:07:31.510Z,1023.19
2016-03-16T12:08:31.481Z,1023.14
2016-03-16T12:09:31.452Z,1023.14